sensor_id;sensor_type;location;lat;lon;timestamp;pressure;altitude;pressure_sealevel;temperature;humidity
74228;BME280;62587;52.352;5.006;2022-08-20T00:00:56;101550.84;;;26.84;53.95
74228;BME280;62587;52.352;5.006;2022-08-20T00:03:33;101543.66;;;26.84;54.02
74228;BME280;62587;52.352;5.006;2022-08-20T00:06:04;101546.59;;;26.81;53.88
74228;BME280;62587;52.352;5.006;2022-08-20T00:08:30;101552.97;;;26.80;53.96
74228;BME280;62587;52.352;5.006;2022-08-20T00:10:57;101548.44;;;26.81;53.82
74228;BME280;62587;52.352;5.006;2022-08-20T00:13:30;101546.59;;;26.81;53.60
74228;BME280;62587;52.352;5.006;2022-08-20T00:15:56;101547.84;;;26.77;53.52
74228;BME280;62587;52.352;5.006;2022-08-20T00:18:22;101548.72;;;26.78;53.58
74228;BME280;62587;52.352;5.006;2022-08-20T00:20:50;101546.84;;;26.78;53.62
74228;BME280;62587;52.352;5.006;2022-08-20T00:23:17;101556.47;;;26.81;53.43
74228;BME280;62587;52.352;5.006;2022-08-20T00:25:43;101556.47;;;26.81;53.47
74228;BME280;62587;52.352;5.006;2022-08-20T00:28:09;101551.97;;;26.81;53.69
74228;BME280;62587;52.352;5.006;2022-08-20T00:30:36;101559.06;;;26.82;53.41
74228;BME280;62587;52.352;5.006;2022-08-20T00:33:05;101560.44;;;26.77;53.60
74228;BME280;62587;52.352;5.006;2022-08-20T00:35:33;101556.03;;;26.76;53.53
74228;BME280;62587;52.352;5.006;2022-08-20T00:37:59;101556.63;;;26.79;53.38
74228;BME280;62587;52.352;5.006;2022-08-20T00:40:31;101560.28;;;26.78;53.43
74228;BME280;62587;52.352;5.006;2022-08-20T00:43:00;101551.25;;;26.79;53.29
74228;BME280;62587;52.352;5.006;2022-08-20T00:45:29;101548.56;;;26.79;53.20
74228;BME280;62587;52.352;5.006;2022-08-20T00:47:55;101548.81;;;26.76;53.35
74228;BME280;62587;52.352;5.006;2022-08-20T00:50:25;101549.91;;;26.74;53.34
74228;BME280;62587;52.352;5.006;2022-08-20T00:52:51;101559.78;;;26.73;53.38
74228;BME280;62587;52.352;5.006;2022-08-20T00:55:19;101559.56;;;26.76;53.29
74228;BME280;62587;52.352;5.006;2022-08-20T00:57:52;101564.94;;;26.76;53.31
74228;BME280;62587;52.352;5.006;2022-08-20T01:00:37;101566.78;;;26.76;53.26
74228;BME280;62587;52.352;5.006;2022-08-20T01:03:06;101558.59;;;26.77;52.96
74228;BME280;62587;52.352;5.006;2022-08-20T01:05:40;101554.19;;;26.76;52.88
74228;BME280;62587;52.352;5.006;2022-08-20T01:08:06;101563.13;;;26.77;53.11
74228;BME280;62587;52.352;5.006;2022-08-20T01:10:36;101548.06;;;26.74;53.23
74228;BME280;62587;52.352;5.006;2022-08-20T01:13:05;101544.69;;;26.72;53.09
74228;BME280;62587;52.352;5.006;2022-08-20T01:15:36;101545.66;;;26.71;53.19
74228;BME280;62587;52.352;5.006;2022-08-20T01:18:02;101556.41;;;26.71;52.84
74228;BME280;62587;52.352;5.006;2022-08-20T01:20:31;101556.28;;;26.73;53.14
74228;BME280;62587;52.352;5.006;2022-08-20T01:26:16;101555.44;;;26.72;52.94
74228;BME280;62587;52.352;5.006;2022-08-20T01:28:53;101554.56;;;26.72;52.78
74228;BME280;62587;52.352;5.006;2022-08-20T01:31:26;101550.66;;;26.76;52.31
74228;BME280;62587;52.352;5.006;2022-08-20T01:33:53;101555.19;;;26.75;52.32
74228;BME280;62587;52.352;5.006;2022-08-20T01:36:34;101563.25;;;26.75;52.48
74228;BME280;62587;52.352;5.006;2022-08-20T01:39:01;101565.81;;;26.77;52.27
74228;BME280;62587;52.352;5.006;2022-08-20T01:41:34;101555.91;;;26.77;52.08
74228;BME280;62587;52.352;5.006;2022-08-20T01:44:05;101562.16;;;26.78;51.97
74228;BME280;62587;52.352;5.006;2022-08-20T01:46:36;101565.94;;;26.75;51.88
74228;BME280;62587;52.352;5.006;2022-08-20T01:49:14;101558.59;;;26.77;51.82
74228;BME280;62587;52.352;5.006;2022-08-20T01:51:40;101569.34;;;26.77;52.00
74228;BME280;62587;52.352;5.006;2022-08-20T01:54:06;101569.22;;;26.79;51.52
74228;BME280;62587;52.352;5.006;2022-08-20T01:56:33;101571.91;;;26.79;51.67
74228;BME280;62587;52.352;5.006;2022-08-20T01:59:01;101570.22;;;26.78;51.19
74228;BME280;62587;52.352;5.006;2022-08-20T02:01:30;101566.53;;;26.79;51.34
74228;BME280;62587;52.352;5.006;2022-08-20T02:03:59;101563.97;;;26.77;50.93
74228;BME280;62587;52.352;5.006;2022-08-20T02:06:27;101557.88;;;26.75;51.23
74228;BME280;62587;52.352;5.006;2022-08-20T02:08:59;101558.59;;;26.77;50.90
74228;BME280;62587;52.352;5.006;2022-08-20T02:11:27;101560.56;;;26.75;50.81
74228;BME280;62587;52.352;5.006;2022-08-20T02:13:53;101563.34;;;26.74;50.30
74228;BME280;62587;52.352;5.006;2022-08-20T02:16:25;101573.22;;;26.73;50.59
74228;BME280;62587;52.352;5.006;2022-08-20T02:18:55;101573.13;;;26.75;50.41
74228;BME280;62587;52.352;5.006;2022-08-20T02:21:23;101568.72;;;26.74;50.13
74228;BME280;62587;52.352;5.006;2022-08-20T02:23:49;101569.47;;;26.76;49.95
74228;BME280;62587;52.352;5.006;2022-08-20T02:26:14;101567.03;;;26.73;49.79
74228;BME280;62587;52.352;5.006;2022-08-20T02:28:47;101575.09;;;26.73;49.94
74228;BME280;62587;52.352;5.006;2022-08-20T02:31:14;101566.28;;;26.71;49.66
74228;BME280;62587;52.352;5.006;2022-08-20T02:33:40;101569.97;;;26.70;49.88
74228;BME280;62587;52.352;5.006;2022-08-20T02:36:05;101562.63;;;26.72;49.74
74228;BME280;62587;52.352;5.006;2022-08-20T02:38:31;101567.84;;;26.73;49.47
74228;BME280;62587;52.352;5.006;2022-08-20T02:41:00;101563.59;;;26.71;49.73
74228;BME280;62587;52.352;5.006;2022-08-20T02:43:25;101561.91;;;26.70;49.13
74228;BME280;62587;52.352;5.006;2022-08-20T02:45:50;101562.16;;;26.67;49.17
74228;BME280;62587;52.352;5.006;2022-08-20T02:48:18;101568.16;;;26.70;49.02
74228;BME280;62587;52.352;5.006;2022-08-20T02:50:49;101570.84;;;26.70;48.66
74228;BME280;62587;52.352;5.006;2022-08-20T02:53:15;101564.75;;;26.68;48.50
74228;BME280;62587;52.352;5.006;2022-08-20T02:55:41;101563.75;;;26.69;48.10
74228;BME280;62587;52.352;5.006;2022-08-20T02:58:06;101563.03;;;26.67;48.28
74228;BME280;62587;52.352;5.006;2022-08-20T03:00:32;101561.19;;;26.68;47.96
74228;BME280;62587;52.352;5.006;2022-08-20T03:02:57;101562.31;;;26.65;48.29
74228;BME280;62587;52.352;5.006;2022-08-20T03:05:23;101560.34;;;26.67;48.13
74228;BME280;62587;52.352;5.006;2022-08-20T03:07:51;101554.97;;;26.67;47.59
74228;BME280;62587;52.352;5.006;2022-08-20T03:10:23;101563.03;;;26.67;48.20
74228;BME280;62587;52.352;5.006;2022-08-20T03:12:50;101569.25;;;26.68;47.75
74228;BME280;62587;52.352;5.006;2022-08-20T03:15:17;101570.22;;;26.67;47.46
74228;BME280;62587;52.352;5.006;2022-08-20T03:17:43;101571.22;;;26.66;47.72
74228;BME280;62587;52.352;5.006;2022-08-20T03:20:09;101578.53;;;26.63;47.58
74228;BME280;62587;52.352;5.006;2022-08-20T03:22:34;101576.59;;;26.66;47.46
74228;BME280;62587;52.352;5.006;2022-08-20T03:25:00;101576.84;;;26.63;47.27
74228;BME280;62587;52.352;5.006;2022-08-20T03:27:25;101579.78;;;26.59;47.46
74228;BME280;62587;52.352;5.006;2022-08-20T03:29:51;101585.78;;;26.63;47.24
74228;BME280;62587;52.352;5.006;2022-08-20T03:32:16;101580.41;;;26.63;47.24
74228;BME280;62587;52.352;5.006;2022-08-20T03:34:41;101580.13;;;26.66;47.05
74228;BME280;62587;52.352;5.006;2022-08-20T03:37:07;101577.72;;;26.63;46.96
74228;BME280;62587;52.352;5.006;2022-08-20T03:39:32;101574.03;;;26.64;46.86
74228;BME280;62587;52.352;5.006;2022-08-20T03:41:58;101573.91;;;26.66;46.74
74228;BME280;62587;52.352;5.006;2022-08-20T03:44:23;101574.88;;;26.65;46.64
74228;BME280;62587;52.352;5.006;2022-08-20T03:46:50;101571.94;;;26.68;46.74
74228;BME280;62587;52.352;5.006;2022-08-20T03:49:16;101569.38;;;26.66;46.70
74228;BME280;62587;52.352;5.006;2022-08-20T03:51:41;101576.47;;;26.67;46.59
74228;BME280;62587;52.352;5.006;2022-08-20T03:54:06;101578.28;;;26.67;46.77
74228;BME280;62587;52.352;5.006;2022-08-20T03:56:32;101580.25;;;26.65;46.33
74228;BME280;62587;52.352;5.006;2022-08-20T03:58:57;101586.34;;;26.67;46.20
74228;BME280;62587;52.352;5.006;2022-08-20T04:01:22;101584.53;;;26.67;46.32
74228;BME280;62587;52.352;5.006;2022-08-20T04:03:48;101584.78;;;26.64;46.17
74228;BME280;62587;52.352;5.006;2022-08-20T04:06:13;101584.91;;;26.63;46.28
74228;BME280;62587;52.352;5.006;2022-08-20T04:08:38;101585.88;;;26.61;46.44
74228;BME280;62587;52.352;5.006;2022-08-20T04:11:05;101589.56;;;26.60;46.58
74228;BME280;62587;52.352;5.006;2022-08-20T04:13:31;101595.78;;;26.61;46.40
74228;BME280;62587;52.352;5.006;2022-08-20T04:15:57;101593.09;;;26.61;46.08
74228;BME280;62587;52.352;5.006;2022-08-20T04:18:24;101602.00;;;26.61;46.12
74228;BME280;62587;52.352;5.006;2022-08-20T04:20:51;101599.22;;;26.63;46.21
74228;BME280;62587;52.352;5.006;2022-08-20T04:23:17;101598.34;;;26.63;46.23
74228;BME280;62587;52.352;5.006;2022-08-20T04:25:43;101601.16;;;26.61;46.12
74228;BME280;62587;52.352;5.006;2022-08-20T04:28:14;101594.94;;;26.60;45.96
74228;BME280;62587;52.352;5.006;2022-08-20T04:30:41;101590.41;;;26.61;46.14
74228;BME280;62587;52.352;5.006;2022-08-20T04:33:07;101599.47;;;26.60;45.90
74228;BME280;62587;52.352;5.006;2022-08-20T04:35:34;101595.06;;;26.59;45.72
74228;BME280;62587;52.352;5.006;2022-08-20T04:38:05;101591.66;;;26.57;45.83
74228;BME280;62587;52.352;5.006;2022-08-20T04:40:31;101603.13;;;26.59;46.00
74228;BME280;62587;52.352;5.006;2022-08-20T04:43:19;101593.94;;;26.61;45.68
74228;BME280;62587;52.352;5.006;2022-08-20T04:45:45;101602.16;;;26.60;45.67
74228;BME280;62587;52.352;5.006;2022-08-20T04:48:12;101610.06;;;26.61;45.75
74228;BME280;62587;52.352;5.006;2022-08-20T04:50:39;101617.41;;;26.59;45.78
74228;BME280;62587;52.352;5.006;2022-08-20T04:53:07;101613.84;;;26.59;45.67
74228;BME280;62587;52.352;5.006;2022-08-20T04:55:34;101615.84;;;26.57;45.62
74228;BME280;62587;52.352;5.006;2022-08-20T04:58:04;101620.22;;;26.58;45.46
74228;BME280;62587;52.352;5.006;2022-08-20T05:00:30;101618.50;;;26.57;45.34
74228;BME280;62587;52.352;5.006;2022-08-20T05:02:56;101622.06;;;26.57;45.59
74228;BME280;62587;52.352;5.006;2022-08-20T05:05:21;101615.72;;;26.58;45.29
74228;BME280;62587;52.352;5.006;2022-08-20T05:07:47;101623.03;;;26.56;45.45
74228;BME280;62587;52.352;5.006;2022-08-20T05:10:15;101629.16;;;26.58;45.27
74228;BME280;62587;52.352;5.006;2022-08-20T05:12:41;101629.97;;;26.59;45.26
74228;BME280;62587;52.352;5.006;2022-08-20T05:15:08;101626.47;;;26.58;44.94
74228;BME280;62587;52.352;5.006;2022-08-20T05:17:37;101633.66;;;26.58;44.80
74228;BME280;62587;52.352;5.006;2022-08-20T05:20:04;101642.69;;;26.57;45.28
74228;BME280;62587;52.352;5.006;2022-08-20T05:22:31;101636.22;;;26.59;44.75
74228;BME280;62587;52.352;5.006;2022-08-20T05:24:56;101638.19;;;26.57;44.54
74228;BME280;62587;52.352;5.006;2022-08-20T05:27:24;101643.31;;;26.60;44.71
74228;BME280;62587;52.352;5.006;2022-08-20T05:29:52;101639.91;;;26.58;44.23
74228;BME280;62587;52.352;5.006;2022-08-20T05:32:19;101633.91;;;26.55;44.37
74228;BME280;62587;52.352;5.006;2022-08-20T05:34:44;101641.44;;;26.61;44.66
74228;BME280;62587;52.352;5.006;2022-08-20T05:37:10;101637.06;;;26.60;44.16
74228;BME280;62587;52.352;5.006;2022-08-20T05:39:35;101646.94;;;26.59;44.00
74228;BME280;62587;52.352;5.006;2022-08-20T05:42:00;101643.56;;;26.57;44.07
74228;BME280;62587;52.352;5.006;2022-08-20T05:44:26;101645.38;;;26.57;44.06
74228;BME280;62587;52.352;5.006;2022-08-20T05:46:51;101644.53;;;26.56;44.05
74228;BME280;62587;52.352;5.006;2022-08-20T05:49:19;101643.56;;;26.57;44.07
74228;BME280;62587;52.352;5.006;2022-08-20T05:51:45;101651.59;;;26.57;43.76
74228;BME280;62587;52.352;5.006;2022-08-20T05:54:11;101653.44;;;26.57;43.76
74228;BME280;62587;52.352;5.006;2022-08-20T05:56:37;101652.47;;;26.58;43.66
74228;BME280;62587;52.352;5.006;2022-08-20T05:59:05;101654.44;;;26.56;43.76
74228;BME280;62587;52.352;5.006;2022-08-20T06:01:32;101653.56;;;26.55;43.49
74228;BME280;62587;52.352;5.006;2022-08-20T06:03:59;101655.53;;;26.53;43.49
74228;BME280;62587;52.352;5.006;2022-08-20T06:06:43;101646.50;;;26.54;43.52
74228;BME280;62587;52.352;5.006;2022-08-20T06:09:08;101654.28;;;26.57;43.40
74228;BME280;62587;52.352;5.006;2022-08-20T06:11:34;101655.16;;;26.58;43.43
74228;BME280;62587;52.352;5.006;2022-08-20T06:13:59;101657.94;;;26.56;43.29
74228;BME280;62587;52.352;5.006;2022-08-20T06:16:25;101657.94;;;26.56;43.48
74228;BME280;62587;52.352;5.006;2022-08-20T06:18:50;101660.38;;;26.59;43.23
74228;BME280;62587;52.352;5.006;2022-08-20T06:21:16;101666.75;;;26.58;43.43
74228;BME280;62587;52.352;5.006;2022-08-20T06:23:41;101653.56;;;26.55;43.25
74228;BME280;62587;52.352;5.006;2022-08-20T06:26:07;101653.44;;;26.57;43.31
74228;BME280;62587;52.352;5.006;2022-08-20T06:28:34;101661.38;;;26.58;43.02
74228;BME280;62587;52.352;5.006;2022-08-20T06:31:00;101658.81;;;26.57;43.16
74228;BME280;62587;52.352;5.006;2022-08-20T06:33:25;101650.91;;;26.55;43.03
74228;BME280;62587;52.352;5.006;2022-08-20T06:35:51;101664.31;;;26.55;43.32
74228;BME280;62587;52.352;5.006;2022-08-20T06:38:17;101665.28;;;26.54;42.98
74228;BME280;62587;52.352;5.006;2022-08-20T06:40:42;101658.94;;;26.55;42.94
74228;BME280;62587;52.352;5.006;2022-08-20T06:43:08;101665.91;;;26.58;42.92
74228;BME280;62587;52.352;5.006;2022-08-20T06:45:34;101657.94;;;26.56;42.96
74228;BME280;62587;52.352;5.006;2022-08-20T06:48:05;101666.16;;;26.55;43.09
74228;BME280;62587;52.352;5.006;2022-08-20T06:50:34;101665.28;;;26.54;43.08
74228;BME280;62587;52.352;5.006;2022-08-20T06:53:08;101665.19;;;26.56;42.67
74228;BME280;62587;52.352;5.006;2022-08-20T06:55:35;101669.31;;;26.60;42.62
74228;BME280;62587;52.352;5.006;2022-08-20T06:58:02;101668.31;;;26.61;42.84
74228;BME280;62587;52.352;5.006;2022-08-20T07:00:29;101669.16;;;26.61;42.42
74228;BME280;62587;52.352;5.006;2022-08-20T07:02:58;101662.34;;;26.57;42.86
74228;BME280;62587;52.352;5.006;2022-08-20T07:05:35;101672.25;;;26.57;42.89
74228;BME280;62587;52.352;5.006;2022-08-20T07:08:02;101664.31;;;26.55;42.92
74228;BME280;62587;52.352;5.006;2022-08-20T07:10:28;101672.38;;;26.55;42.48
74228;BME280;62587;52.352;5.006;2022-08-20T07:12:54;101673.25;;;26.56;42.68
74228;BME280;62587;52.352;5.006;2022-08-20T07:15:21;101682.03;;;26.58;42.83
74228;BME280;62587;52.352;5.006;2022-08-20T07:17:59;101679.34;;;26.58;42.43
74228;BME280;62587;52.352;5.006;2022-08-20T07:20:26;101681.88;;;26.59;42.66
74228;BME280;62587;52.352;5.006;2022-08-20T07:22:51;101678.34;;;26.59;42.84
74228;BME280;62587;52.352;5.006;2022-08-20T07:25:19;101682.75;;;26.60;42.75
74228;BME280;62587;52.352;5.006;2022-08-20T07:27:45;101685.28;;;26.61;42.25
74228;BME280;62587;52.352;5.006;2022-08-20T07:30:15;101677.13;;;26.63;42.48
74228;BME280;62587;52.352;5.006;2022-08-20T07:32:59;101679.91;;;26.61;42.59
74228;BME280;62587;52.352;5.006;2022-08-20T07:35:25;101681.63;;;26.63;42.24
74228;BME280;62587;52.352;5.006;2022-08-20T07:37:51;101692.94;;;26.66;42.10
74228;BME280;62587;52.352;5.006;2022-08-20T07:40:25;101690.41;;;26.65;42.16
74228;BME280;62587;52.352;5.006;2022-08-20T07:42:56;101697.75;;;26.63;42.24
74228;BME280;62587;52.352;5.006;2022-08-20T07:45:24;101697.75;;;26.63;42.03
74228;BME280;62587;52.352;5.006;2022-08-20T07:47:50;101700.19;;;26.66;41.97
74228;BME280;62587;52.352;5.006;2022-08-20T07:50:18;101703.84;;;26.65;41.87
74228;BME280;62587;52.352;5.006;2022-08-20T07:52:45;101702.97;;;26.64;41.84
74228;BME280;62587;52.352;5.006;2022-08-20T07:55:13;101708.09;;;26.67;41.26
74228;BME280;62587;52.352;5.006;2022-08-20T07:57:39;101699.19;;;26.67;41.04
74228;BME280;62587;52.352;5.006;2022-08-20T08:00:07;101705.41;;;26.67;41.37
74228;BME280;62587;52.352;5.006;2022-08-20T08:02:34;101708.09;;;26.67;41.41
74228;BME280;62587;52.352;5.006;2022-08-20T08:05:00;101708.97;;;26.68;41.40
74228;BME280;62587;52.352;5.006;2022-08-20T08:07:27;101705.66;;;26.64;41.21
74228;BME280;62587;52.352;5.006;2022-08-20T08:09:53;101709.94;;;26.67;40.95
74228;BME280;62587;52.352;5.006;2022-08-20T08:12:19;101705.56;;;26.66;40.96
74228;BME280;62587;52.352;5.006;2022-08-20T08:14:46;101704.44;;;26.68;40.77
74228;BME280;62587;52.352;5.006;2022-08-20T08:17:12;101711.75;;;26.66;40.58
74228;BME280;62587;52.352;5.006;2022-08-20T08:19:41;101716.16;;;26.67;40.97
74228;BME280;62587;52.352;5.006;2022-08-20T08:22:11;101708.25;;;26.66;40.65
74228;BME280;62587;52.352;5.006;2022-08-20T08:24:38;101712.63;;;26.67;40.47
74228;BME280;62587;52.352;5.006;2022-08-20T08:27:04;101716.31;;;26.66;40.80
74228;BME280;62587;52.352;5.006;2022-08-20T08:29:30;101711.91;;;26.65;40.54
74228;BME280;62587;52.352;5.006;2022-08-20T08:31:55;101706.38;;;26.66;40.81
74228;BME280;62587;52.352;5.006;2022-08-20T08:34:21;101707.97;;;26.69;40.43
74228;BME280;62587;52.352;5.006;2022-08-20T08:36:50;101707.00;;;26.70;40.75
74228;BME280;62587;52.352;5.006;2022-08-20T08:39:15;101709.53;;;26.71;40.66
74228;BME280;62587;52.352;5.006;2022-08-20T08:41:44;101713.22;;;26.70;40.71
74228;BME280;62587;52.352;5.006;2022-08-20T08:44:33;101711.38;;;26.71;40.39
74228;BME280;62587;52.352;5.006;2022-08-20T08:47:03;101712.38;;;26.70;40.08
74228;BME280;62587;52.352;5.006;2022-08-20T08:49:34;101709.81;;;26.68;40.38
74228;BME280;62587;52.352;5.006;2022-08-20T08:52:27;101711.38;;;26.71;39.96
74228;BME280;62587;52.352;5.006;2022-08-20T08:54:57;101717.75;;;26.70;39.88
74228;BME280;62587;52.352;5.006;2022-08-20T08:57:24;101722.00;;;26.72;39.74
74228;BME280;62587;52.352;5.006;2022-08-20T09:00:03;101724.81;;;26.71;39.87
74228;BME280;62587;52.352;5.006;2022-08-20T09:02:30;101723.97;;;26.70;39.23
74228;BME280;62587;52.352;5.006;2022-08-20T09:04:58;101730.19;;;26.71;39.43
74228;BME280;62587;52.352;5.006;2022-08-20T09:07:27;101734.59;;;26.72;39.37
74228;BME280;62587;52.352;5.006;2022-08-20T09:09:55;101733.72;;;26.71;39.10
74228;BME280;62587;52.352;5.006;2022-08-20T09:12:23;101728.34;;;26.71;39.26
74228;BME280;62587;52.352;5.006;2022-08-20T09:14:52;101731.91;;;26.72;39.26
74228;BME280;62587;52.352;5.006;2022-08-20T09:17:19;101731.03;;;26.71;39.25
74228;BME280;62587;52.352;5.006;2022-08-20T09:19:45;101724.81;;;26.71;38.79
74228;BME280;62587;52.352;5.006;2022-08-20T09:22:14;101719.44;;;26.71;38.71
74228;BME280;62587;52.352;5.006;2022-08-20T09:24:41;101726.78;;;26.69;38.98
74228;BME280;62587;52.352;5.006;2022-08-20T09:27:07;101729.22;;;26.72;38.92
74228;BME280;62587;52.352;5.006;2022-08-20T09:29:33;101720.28;;;26.71;39.08
74228;BME280;62587;52.352;5.006;2022-08-20T09:32:11;101720.28;;;26.71;39.23
74228;BME280;62587;52.352;5.006;2022-08-20T09:34:39;101717.50;;;26.73;38.84
74228;BME280;62587;52.352;5.006;2022-08-20T09:37:05;101718.31;;;26.73;38.74
74228;BME280;62587;52.352;5.006;2022-08-20T09:39:30;101717.50;;;26.73;38.99
74228;BME280;62587;52.352;5.006;2022-08-20T09:42:09;101720.91;;;26.75;38.69
74228;BME280;62587;52.352;5.006;2022-08-20T09:44:35;101722.72;;;26.74;38.66
74228;BME280;62587;52.352;5.006;2022-08-20T09:47:00;101728.97;;;26.75;38.55
74228;BME280;62587;52.352;5.006;2022-08-20T09:49:26;101731.44;;;26.78;38.73
74228;BME280;62587;52.352;5.006;2022-08-20T09:51:51;101725.19;;;26.77;38.50
74228;BME280;62587;52.352;5.006;2022-08-20T09:54:18;101716.41;;;26.75;38.70
74228;BME280;62587;52.352;5.006;2022-08-20T09:56:43;101721.78;;;26.75;38.75
74228;BME280;62587;52.352;5.006;2022-08-20T09:59:09;101721.78;;;26.75;38.48
74228;BME280;62587;52.352;5.006;2022-08-20T10:01:34;101719.09;;;26.75;38.41
74228;BME280;62587;52.352;5.006;2022-08-20T10:04:00;101715.41;;;26.76;38.87
74228;BME280;62587;52.352;5.006;2022-08-20T10:06:25;101716.13;;;26.78;38.49
74228;BME280;62587;52.352;5.006;2022-08-20T10:08:50;101714.31;;;26.79;38.79
74228;BME280;62587;52.352;5.006;2022-08-20T10:11:16;101713.34;;;26.80;38.50
74228;BME280;62587;52.352;5.006;2022-08-20T10:13:42;101719.28;;;26.83;38.25
74228;BME280;62587;52.352;5.006;2022-08-20T10:16:07;101720.88;;;26.86;38.03
74228;BME280;62587;52.352;5.006;2022-08-20T10:18:34;101721.00;;;26.84;38.28
74228;BME280;62587;52.352;5.006;2022-08-20T10:21:00;101721.25;;;26.81;38.12
74228;BME280;62587;52.352;5.006;2022-08-20T10:23:25;101717.00;;;26.79;38.53
74228;BME280;62587;52.352;5.006;2022-08-20T10:25:50;101718.97;;;26.77;38.62
74228;BME280;62587;52.352;5.006;2022-08-20T10:28:16;101718.09;;;26.76;38.66
74228;BME280;62587;52.352;5.006;2022-08-20T10:30:41;101721.50;;;26.78;38.87
74228;BME280;62587;52.352;5.006;2022-08-20T10:33:07;101720.41;;;26.81;38.73
74228;BME280;62587;52.352;5.006;2022-08-20T10:35:33;101721.00;;;26.84;38.74
74228;BME280;62587;52.352;5.006;2022-08-20T10:37:59;101728.22;;;26.84;38.63
74228;BME280;62587;52.352;5.006;2022-08-20T10:40:24;101716.59;;;26.83;38.36
74228;BME280;62587;52.352;5.006;2022-08-20T10:42:49;101731.03;;;26.82;38.43
74228;BME280;62587;52.352;5.006;2022-08-20T10:45:16;101716.59;;;26.83;38.50
74228;BME280;62587;52.352;5.006;2022-08-20T10:47:42;101720.41;;;26.81;38.32
74228;BME280;62587;52.352;5.006;2022-08-20T10:50:11;101717.72;;;26.81;38.49
74228;BME280;62587;52.352;5.006;2022-08-20T10:52:36;101713.06;;;26.83;38.52
74228;BME280;62587;52.352;5.006;2022-08-20T10:55:03;101728.06;;;26.85;38.37
74228;BME280;62587;52.352;5.006;2022-08-20T10:57:32;101721.97;;;26.83;38.38
74228;BME280;62587;52.352;5.006;2022-08-20T11:00:00;101714.78;;;26.84;38.64
74228;BME280;62587;52.352;5.006;2022-08-20T11:02:27;101713.66;;;26.86;38.38
74228;BME280;62587;52.352;5.006;2022-08-20T11:04:53;101710.97;;;26.86;38.24
74228;BME280;62587;52.352;5.006;2022-08-20T11:09:49;101709.72;;;26.90;38.19
74228;BME280;62587;52.352;5.006;2022-08-20T11:12:16;101707.75;;;26.92;38.20
74228;BME280;62587;52.352;5.006;2022-08-20T11:14:41;101713.03;;;26.94;38.46
74228;BME280;62587;52.352;5.006;2022-08-20T11:17:08;101704.81;;;26.95;38.50
74228;BME280;62587;52.352;5.006;2022-08-20T11:19:41;101709.47;;;26.93;38.09
74228;BME280;62587;52.352;5.006;2022-08-20T11:22:08;101713.34;;;27.00;38.08
74228;BME280;62587;52.352;5.006;2022-08-20T11:24:34;101719.44;;;27.02;38.08
74228;BME280;62587;52.352;5.006;2022-08-20T11:26:59;101717.41;;;26.95;38.25
74228;BME280;62587;52.352;5.006;2022-08-20T11:29:25;101724.25;;;26.99;37.88
74228;BME280;62587;52.352;5.006;2022-08-20T11:31:50;101719.38;;;26.93;38.47
74228;BME280;62587;52.352;5.006;2022-08-20T11:34:16;101719.97;;;26.96;38.22
74228;BME280;62587;52.352;5.006;2022-08-20T11:36:43;101722.28;;;27.01;37.56
74228;BME280;62587;52.352;5.006;2022-08-20T11:39:09;101718.16;;;26.97;37.62
74228;BME280;62587;52.352;5.006;2022-08-20T11:41:35;101724.97;;;27.01;37.69
74228;BME280;62587;52.352;5.006;2022-08-20T11:44:00;101722.28;;;27.01;37.72
74228;BME280;62587;52.352;5.006;2022-08-20T11:46:25;101726.78;;;27.00;38.01
74228;BME280;62587;52.352;5.006;2022-08-20T11:48:51;101714.34;;;26.99;38.06
74228;BME280;62587;52.352;5.006;2022-08-20T11:51:16;101716.66;;;27.04;37.20
74228;BME280;62587;52.352;5.006;2022-08-20T11:53:41;101720.44;;;27.01;37.63
74228;BME280;62587;52.352;5.006;2022-08-20T11:56:07;101718.47;;;27.03;37.52
74228;BME280;62587;52.352;5.006;2022-08-20T11:58:32;101716.75;;;27.02;37.81
74228;BME280;62587;52.352;5.006;2022-08-20T12:00:58;101720.31;;;27.03;37.67
74228;BME280;62587;52.352;5.006;2022-08-20T12:03:23;101723.59;;;27.06;37.83
74228;BME280;62587;52.352;5.006;2022-08-20T12:05:49;101714.53;;;27.07;37.51
74228;BME280;62587;52.352;5.006;2022-08-20T12:08:15;101713.28;;;27.11;36.90
74228;BME280;62587;52.352;5.006;2022-08-20T12:10:41;101715.72;;;27.14;37.39
74228;BME280;62587;52.352;5.006;2022-08-20T12:13:06;101711.91;;;27.17;36.78
74228;BME280;62587;52.352;5.006;2022-08-20T12:15:33;101708.38;;;27.16;36.73
74228;BME280;62587;52.352;5.006;2022-08-20T12:17:59;101712.78;;;27.17;37.03
74228;BME280;62587;52.352;5.006;2022-08-20T12:20:25;101719.88;;;27.18;36.55
74228;BME280;62587;52.352;5.006;2022-08-20T12:22:52;101716.44;;;27.16;36.89
74228;BME280;62587;52.352;5.006;2022-08-20T12:25:18;101719.41;;;27.13;36.87
74228;BME280;62587;52.352;5.006;2022-08-20T12:27:45;101716.97;;;27.10;36.81
74228;BME280;62587;52.352;5.006;2022-08-20T12:30:14;101720.91;;;27.06;37.50
74228;BME280;62587;52.352;5.006;2022-08-20T12:32:40;101725.44;;;27.06;37.22
74228;BME280;62587;52.352;5.006;2022-08-20T12:35:08;101717.22;;;27.07;37.13
74228;BME280;62587;52.352;5.006;2022-08-20T12:37:34;101718.09;;;27.08;37.20
74228;BME280;62587;52.352;5.006;2022-08-20T12:40:03;101713.41;;;27.10;37.21
74228;BME280;62587;52.352;5.006;2022-08-20T12:42:29;101705.22;;;27.11;36.69
74228;BME280;62587;52.352;5.006;2022-08-20T12:44:55;101702.41;;;27.13;37.02
74228;BME280;62587;52.352;5.006;2022-08-20T12:49:50;101708.03;;;27.10;37.67
74228;BME280;62587;52.352;5.006;2022-08-20T12:52:18;101706.06;;;27.12;37.11
74228;BME280;62587;52.352;5.006;2022-08-20T12:54:44;101701.03;;;27.18;36.98
74228;BME280;62587;52.352;5.006;2022-08-20T12:57:19;101701.63;;;27.22;36.98
74228;BME280;62587;52.352;5.006;2022-08-20T12:59:46;101697.09;;;27.22;37.04